createdAt,value
2022-11-02T00:00:55.682Z,14.36
2022-11-02T00:03:24.056Z,14.38
2022-11-02T00:05:52.210Z,14.35
2022-11-02T00:08:21.805Z,14.32
2022-11-02T00:10:49.955Z,14.35
2022-11-02T00:13:21.223Z,14.07
2022-11-02T00:15:49.409Z,14.01
2022-11-02T00:18:17.718Z,13.58
2022-11-02T00:20:45.830Z,13.34
2022-11-02T00:23:14.347Z,13.60
2022-11-02T00:25:47.183Z,13.43
2022-11-02T00:28:15.835Z,13.58
2022-11-02T00:30:44.600Z,13.46
2022-11-02T00:33:13.045Z,13.24
2022-11-02T00:35:41.593Z,13.28
2022-11-02T00:38:09.962Z,13.24
2022-11-02T00:40:38.135Z,13.15
2022-11-02T00:43:08.391Z,12.97
2022-11-02T00:45:36.623Z,12.90
2022-11-02T00:48:05.615Z,13.01
2022-11-02T00:50:33.983Z,13.15
2022-11-02T00:53:02.492Z,13.14
2022-11-02T00:55:30.762Z,13.14
2022-11-02T00:58:04.364Z,13.26
2022-11-02T01:00:34.106Z,13.15
2022-11-02T01:03:02.495Z,13.26
2022-11-02T01:05:31.851Z,13.24
2022-11-02T01:08:00.001Z,13.07
2022-11-02T01:10:28.565Z,13.22
2022-11-02T01:12:56.763Z,13.13
2022-11-02T01:15:24.909Z,13.29
2022-11-02T01:17:54.374Z,13.23
2022-11-02T01:20:22.530Z,13.22
2022-11-02T01:22:50.641Z,13.15
2022-11-02T01:25:20.175Z,13.20
2022-11-02T01:27:48.413Z,13.19
2022-11-02T01:30:16.674Z,13.18
2022-11-02T01:32:45.307Z,13.18
2022-11-02T01:35:15.090Z,12.98
2022-11-02T01:37:43.333Z,13.18
2022-11-02T01:40:12.254Z,12.91
2022-11-02T01:42:40.489Z,13.21
2022-11-02T01:45:10.626Z,13.14
2022-11-02T01:47:40.165Z,13.34
2022-11-02T01:50:11.407Z,13.37
2022-11-02T01:52:41.509Z,13.36
2022-11-02T01:55:11.917Z,13.41
2022-11-02T01:57:41.712Z,13.31
2022-11-02T02:00:11.974Z,13.35
2022-11-02T02:02:47.079Z,13.32
2022-11-02T02:05:16.182Z,13.58
2022-11-02T02:07:46.441Z,13.63
2022-11-02T02:10:14.709Z,13.52
2022-11-02T02:12:44.041Z,13.55
2022-11-02T02:15:13.933Z,13.59
2022-11-02T02:17:48.212Z,13.53
2022-11-02T02:20:26.206Z,12.96
2022-11-02T02:23:25.264Z,13.60
2022-11-02T02:26:08.791Z,13.67
2022-11-02T02:28:42.645Z,13.67
2022-11-02T02:31:16.055Z,13.75
2022-11-02T02:33:47.841Z,13.70
2022-11-02T02:36:22.344Z,13.64
2022-11-02T02:38:57.630Z,13.47
2022-11-02T02:41:32.767Z,13.52
2022-11-02T02:44:04.705Z,13.49
2022-11-02T02:46:37.151Z,13.37
2022-11-02T02:49:06.377Z,13.47
2022-11-02T02:51:35.373Z,13.45
2022-11-02T02:54:05.868Z,13.36
2022-11-02T02:56:38.335Z,13.49
2022-11-02T02:59:12.521Z,13.54
2022-11-02T03:01:41.212Z,13.31
2022-11-02T03:04:11.458Z,13.48
2022-11-02T03:06:40.009Z,13.49
2022-11-02T03:09:14.840Z,13.55
2022-11-02T03:11:51.208Z,13.59
2022-11-02T03:14:28.821Z,13.54
2022-11-02T03:17:07.141Z,13.64
2022-11-02T03:19:42.498Z,13.56
2022-11-02T03:22:17.072Z,13.57
2022-11-02T03:24:50.363Z,13.53
2022-11-02T03:27:22.172Z,13.62
2022-11-02T03:29:56.169Z,13.50
2022-11-02T03:32:27.741Z,13.61
2022-11-02T03:34:57.418Z,13.53
2022-11-02T03:37:29.262Z,13.55
2022-11-02T03:40:02.793Z,13.55
2022-11-02T03:42:33.908Z,13.57
2022-11-02T03:45:08.580Z,13.52
2022-11-02T03:47:37.960Z,13.43
2022-11-02T03:50:10.896Z,13.45
2022-11-02T03:52:42.631Z,13.47
2022-11-02T03:55:13.756Z,13.47
2022-11-02T03:57:44.611Z,13.52
2022-11-02T04:00:18.523Z,13.58
2022-11-02T04:02:57.596Z,13.63
2022-11-02T04:05:30.490Z,13.71
2022-11-02T04:08:18.018Z,13.77
2022-11-02T04:11:04.243Z,13.63
2022-11-02T04:13:49.804Z,13.35
2022-11-02T04:16:23.639Z,13.38
2022-11-02T04:19:14.156Z,13.49
2022-11-02T04:22:04.110Z,13.23
2022-11-02T04:24:51.592Z,13.45
2022-11-02T04:27:21.350Z,13.55
2022-11-02T04:29:51.161Z,13.57
2022-11-02T04:32:35.487Z,13.64
2022-11-02T04:35:05.267Z,13.54
2022-11-02T04:37:57.080Z,13.63
2022-11-02T04:40:25.367Z,13.77
2022-11-02T04:42:54.459Z,13.80
2022-11-02T04:45:22.778Z,13.58
2022-11-02T04:47:52.522Z,13.82
2022-11-02T04:50:20.777Z,13.80
2022-11-02T04:52:56.599Z,13.92
2022-11-02T04:55:25.057Z,13.82
2022-11-02T04:57:54.481Z,13.83
2022-11-02T05:00:24.679Z,13.76
2022-11-02T05:02:55.607Z,13.76
2022-11-02T05:05:25.458Z,13.78
2022-11-02T05:07:56.906Z,13.72
2022-11-02T05:10:25.235Z,13.74
2022-11-02T05:12:58.507Z,13.84
2022-11-02T05:15:30.419Z,13.90
2022-11-02T05:18:02.093Z,13.67
2022-11-02T05:20:31.842Z,13.86
2022-11-02T05:23:00.020Z,13.71
2022-11-02T05:25:28.268Z,13.60
2022-11-02T05:27:57.822Z,13.70
2022-11-02T05:30:26.507Z,13.94
2022-11-02T05:32:57.597Z,13.79
2022-11-02T05:35:27.696Z,13.98
2022-11-02T05:37:56.511Z,12.50
2022-11-02T05:40:25.480Z,14.02
2022-11-02T05:43:00.210Z,13.87
2022-11-02T05:45:29.284Z,13.58
2022-11-02T05:47:57.551Z,13.99
2022-11-02T05:50:27.275Z,14.00
2022-11-02T05:52:55.667Z,13.95
2022-11-02T05:55:24.996Z,13.97
2022-11-02T05:57:54.004Z,13.75
2022-11-02T06:00:22.894Z,13.98
2022-11-02T06:02:57.185Z,13.19
2022-11-02T06:05:27.355Z,13.93
2022-11-02T06:07:59.394Z,13.96
2022-11-02T06:10:27.976Z,13.97
2022-11-02T06:12:57.526Z,14.02
2022-11-02T06:15:25.756Z,13.97
2022-11-02T06:17:53.916Z,13.94
2022-11-02T06:20:22.062Z,13.97
2022-11-02T06:22:51.798Z,13.94
2022-11-02T06:25:19.885Z,13.88
2022-11-02T06:27:56.179Z,13.94
2022-11-02T06:30:27.898Z,13.81
2022-11-02T06:32:56.100Z,13.83
2022-11-02T06:35:24.593Z,13.93
2022-11-02T06:37:54.060Z,13.98
2022-11-02T06:40:25.637Z,13.97
2022-11-02T06:43:15.387Z,13.99
2022-11-02T06:45:45.109Z,13.98
2022-11-02T06:48:13.374Z,13.88
2022-11-02T06:50:41.539Z,13.94
2022-11-02T06:53:11.259Z,13.66
2022-11-02T06:55:39.461Z,13.89
2022-11-02T06:58:07.618Z,13.92
2022-11-02T07:00:35.812Z,13.58
2022-11-02T07:03:06.114Z,13.92
2022-11-02T07:05:35.376Z,14.25
2022-11-02T07:08:03.986Z,14.35
2022-11-02T07:10:35.369Z,14.26
2022-11-02T07:13:04.060Z,14.31
2022-11-02T07:15:32.428Z,14.41
2022-11-02T07:18:00.592Z,14.29
2022-11-02T07:20:30.294Z,14.75
2022-11-02T07:23:00.301Z,15.05
2022-11-02T07:25:31.055Z,15.49
2022-11-02T07:28:01.171Z,15.75
2022-11-02T07:30:29.761Z,15.96
2022-11-02T07:32:58.282Z,16.24
2022-11-02T07:35:26.642Z,16.44
2022-11-02T07:37:58.468Z,16.18
2022-11-02T07:40:27.184Z,16.78
2022-11-02T07:42:55.426Z,16.31
2022-11-02T07:45:33.897Z,16.66
2022-11-02T07:48:02.044Z,17.23
2022-11-02T07:50:30.315Z,17.14
2022-11-02T07:53:00.269Z,17.78
2022-11-02T07:55:30.123Z,17.87
2022-11-02T07:58:00.068Z,18.15
2022-11-02T08:00:29.842Z,17.93
2022-11-02T08:03:01.118Z,18.51
2022-11-02T08:05:30.930Z,18.69
2022-11-02T08:07:59.345Z,18.82
2022-11-02T08:10:28.285Z,18.91
2022-11-02T08:12:57.442Z,19.21
2022-11-02T08:15:25.910Z,18.92
2022-11-02T08:18:06.906Z,19.10
2022-11-02T08:20:36.513Z,19.40
2022-11-02T08:23:05.409Z,19.63
2022-11-02T08:25:33.953Z,19.86
2022-11-02T08:28:02.966Z,20.24
2022-11-02T08:30:32.675Z,20.19
2022-11-02T08:33:05.573Z,19.58
2022-11-02T08:35:34.529Z,20.06
2022-11-02T08:38:03.338Z,20.29
2022-11-02T08:40:32.153Z,20.67
2022-11-02T08:43:04.761Z,20.91
2022-11-02T08:46:00.544Z,21.20
2022-11-02T08:48:26.017Z,20.98
2022-11-02T08:50:54.460Z,21.37
2022-11-02T08:53:22.557Z,21.49
2022-11-02T08:55:50.719Z,21.66
2022-11-02T08:58:19.364Z,21.36
2022-11-02T09:00:47.734Z,20.73
2022-11-02T09:03:19.541Z,20.11
2022-11-02T09:05:52.142Z,19.97
2022-11-02T09:08:21.477Z,19.88
2022-11-02T09:10:52.286Z,20.15
2022-11-02T09:13:25.340Z,20.28
2022-11-02T09:15:55.414Z,20.18
2022-11-02T09:18:24.228Z,20.07
2022-11-02T09:20:53.728Z,20.03
2022-11-02T09:23:23.052Z,20.14
2022-11-02T09:25:51.217Z,20.31
2022-11-02T09:28:19.403Z,20.22
2022-11-02T09:30:47.622Z,20.00
2022-11-02T09:33:16.169Z,20.54
2022-11-02T09:35:46.160Z,20.49
2022-11-02T09:38:16.107Z,20.22
2022-11-02T09:40:46.985Z,20.02
2022-11-02T09:43:21.754Z,19.85
2022-11-02T09:45:54.965Z,19.93
2022-11-02T09:48:28.947Z,19.98
2022-11-02T09:51:03.178Z,19.89
2022-11-02T09:53:39.884Z,19.84
2022-11-02T09:56:09.027Z,19.85
2022-11-02T09:58:39.126Z,20.22
2022-11-02T10:01:18.201Z,20.40
2022-11-02T10:03:59.930Z,20.50
2022-11-02T10:06:28.273Z,20.47
2022-11-02T10:09:02.396Z,20.16
2022-11-02T10:14:14.052Z,20.16
2022-11-02T10:16:47.205Z,20.08
2022-11-02T10:19:17.455Z,19.76
2022-11-02T10:21:48.249Z,19.74
2022-11-02T10:24:28.874Z,19.39
2022-11-02T10:26:58.273Z,19.16
2022-11-02T10:29:35.909Z,18.86
2022-11-02T10:32:04.363Z,18.66
2022-11-02T10:34:34.002Z,17.51
2022-11-02T10:37:23.702Z,18.80
2022-11-02T10:40:00.952Z,18.75
2022-11-02T10:42:40.017Z,18.98
2022-11-02T10:45:34.200Z,18.67
2022-11-02T10:48:07.137Z,19.07
2022-11-02T10:50:46.148Z,19.03
2022-11-02T10:53:40.203Z,19.19
2022-11-02T10:56:12.276Z,19.02
2022-11-02T10:58:43.495Z,19.33
2022-11-02T11:01:13.151Z,19.53
2022-11-02T11:03:59.089Z,19.47
2022-11-02T11:06:29.894Z,19.52
2022-11-02T11:09:03.768Z,19.62
2022-11-02T11:11:35.151Z,18.88
2022-11-02T11:16:55.975Z,19.67
2022-11-02T11:19:44.148Z,19.16
2022-11-02T11:22:27.781Z,18.67
2022-11-02T11:25:26.011Z,19.37
2022-11-02T11:27:58.932Z,19.47
2022-11-02T11:30:54.121Z,19.57
2022-11-02T11:33:18.753Z,19.49
2022-11-02T11:35:50.618Z,19.54
2022-11-02T11:38:20.878Z,19.55
2022-11-02T11:40:53.823Z,19.74
2022-11-02T11:43:25.950Z,19.17
2022-11-02T11:46:05.339Z,19.75
2022-11-02T11:48:40.769Z,19.79
2022-11-02T11:51:28.125Z,19.65
2022-11-02T11:54:19.315Z,19.76
2022-11-02T11:56:47.918Z,19.79
2022-11-02T11:59:29.504Z,19.85
2022-11-02T12:01:59.485Z,19.73
2022-11-02T12:04:29.467Z,19.30
2022-11-02T12:07:24.599Z,19.64
2022-11-02T12:10:02.968Z,19.52
2022-11-02T12:12:42.090Z,19.39
2022-11-02T12:15:27.506Z,19.15
2022-11-02T12:18:07.422Z,19.25
2022-11-02T12:20:55.662Z,19.11
2022-11-02T12:23:33.850Z,19.10
2022-11-02T12:26:13.444Z,17.27
2022-11-02T12:28:49.358Z,19.01
2022-11-02T12:31:25.613Z,19.25
2022-11-02T12:34:05.364Z,19.16
2022-11-02T12:37:11.221Z,19.15
2022-11-02T12:39:42.104Z,18.29
2022-11-02T12:42:24.005Z,19.17
2022-11-02T12:45:03.664Z,19.01
2022-11-02T12:47:52.778Z,19.05
2022-11-02T12:50:30.239Z,18.98
2022-11-02T12:53:09.576Z,18.88
2022-11-02T12:55:42.053Z,18.56
2022-11-02T12:58:17.235Z,18.30
2022-11-02T13:00:46.754Z,18.38
2022-11-02T13:03:26.350Z,18.37
2022-11-02T13:06:00.933Z,18.36
2022-11-02T13:08:35.172Z,18.45
2022-11-02T13:11:07.402Z,18.23
2022-11-02T13:13:39.736Z,18.37
2022-11-02T13:16:09.515Z,18.39
2022-11-02T13:18:43.186Z,18.35
2022-11-02T13:21:13.028Z,18.25
2022-11-02T13:23:45.012Z,18.06
2022-11-02T13:26:25.654Z,17.96
2022-11-02T13:28:56.022Z,17.85
2022-11-02T13:31:29.647Z,17.97
2022-11-02T13:34:03.694Z,17.92
2022-11-02T13:36:32.411Z,17.93
2022-11-02T13:39:04.573Z,17.74
2022-11-02T13:41:50.213Z,17.49
2022-11-02T13:44:45.670Z,17.50
2022-11-02T13:47:28.001Z,17.44
2022-11-02T13:49:58.287Z,17.48
2022-11-02T13:52:35.622Z,17.49
2022-11-02T13:55:06.175Z,17.41
2022-11-02T13:57:36.268Z,17.39
2022-11-02T14:00:08.025Z,17.42
2022-11-02T14:02:39.024Z,16.92
2022-11-02T14:05:09.635Z,17.10
2022-11-02T14:07:41.015Z,16.84
2022-11-02T14:10:14.880Z,16.99
2022-11-02T14:12:44.826Z,16.94
2022-11-02T14:15:49.738Z,17.04
2022-11-02T14:18:31.264Z,16.80
2022-11-02T14:21:39.576Z,17.08
2022-11-02T14:24:41.057Z,17.12
2022-11-02T14:27:30.987Z,16.95
2022-11-02T14:29:59.790Z,17.08
2022-11-02T14:32:40.993Z,17.31
2022-11-02T14:35:18.906Z,17.31
2022-11-02T14:38:02.072Z,17.22
2022-11-02T14:40:34.177Z,16.98
2022-11-02T14:43:14.514Z,16.97
2022-11-02T14:45:51.562Z,16.92
2022-11-02T14:48:19.818Z,16.88
2022-11-02T14:50:59.854Z,16.52
2022-11-02T14:53:30.966Z,16.56
2022-11-02T14:55:59.199Z,16.36
2022-11-02T14:58:31.729Z,16.33
2022-11-02T15:01:01.386Z,16.14
2022-11-02T15:03:34.394Z,16.35
2022-11-02T15:06:05.093Z,16.18
2022-11-02T15:08:37.226Z,15.92
2022-11-02T15:11:38.823Z,16.04
2022-11-02T15:14:34.652Z,16.07
2022-11-02T15:17:03.413Z,15.97
2022-11-02T15:19:37.730Z,15.76
2022-11-02T15:22:34.284Z,15.71
2022-11-02T15:25:07.459Z,15.67
2022-11-02T15:27:36.355Z,15.04
2022-11-02T15:30:06.923Z,15.55
2022-11-02T15:32:39.585Z,15.69
2022-11-02T15:35:19.773Z,15.66
2022-11-02T15:38:11.232Z,15.67
2022-11-02T15:40:48.540Z,15.72
2022-11-02T15:43:31.442Z,15.63
2022-11-02T15:46:08.306Z,15.64
2022-11-02T15:48:44.640Z,15.61
2022-11-02T15:51:19.621Z,15.30
2022-11-02T15:53:57.388Z,15.31
2022-11-02T15:56:38.588Z,15.26
2022-11-02T15:59:28.376Z,14.64
2022-11-02T16:02:21.667Z,15.21
2022-11-02T16:04:52.347Z,15.28
2022-11-02T16:07:21.094Z,15.37
2022-11-02T16:09:49.837Z,13.82
2022-11-02T16:12:21.289Z,15.28
2022-11-02T16:14:55.788Z,12.97
2022-11-02T16:17:25.729Z,15.15
2022-11-02T16:19:54.656Z,14.80
2022-11-02T16:22:26.090Z,15.09
2022-11-02T16:24:55.134Z,15.33
2022-11-02T16:27:25.196Z,15.25
2022-11-02T16:29:53.518Z,15.30
2022-11-02T16:32:21.731Z,15.11
2022-11-02T16:34:50.160Z,15.17
2022-11-02T16:37:19.520Z,15.36
2022-11-02T16:39:48.251Z,15.36
2022-11-02T16:42:18.586Z,15.41
2022-11-02T16:44:57.745Z,15.06
2022-11-02T16:47:40.961Z,15.33
2022-11-02T16:50:22.513Z,15.27
2022-11-02T16:52:55.853Z,15.19
2022-11-02T16:55:40.096Z,15.25
2022-11-02T16:58:13.420Z,15.22
2022-11-02T17:00:54.359Z,15.14
2022-11-02T17:03:25.898Z,15.02
2022-11-02T17:05:54.396Z,15.25
2022-11-02T17:08:31.356Z,14.58
2022-11-02T17:11:01.489Z,14.99
2022-11-02T17:13:32.064Z,15.19
2022-11-02T17:16:07.675Z,15.19
2022-11-02T17:18:36.624Z,15.16
2022-11-02T17:21:31.708Z,15.22
2022-11-02T17:24:00.707Z,15.27
2022-11-02T17:26:32.310Z,15.14
2022-11-02T17:29:01.423Z,15.21
2022-11-02T17:31:32.770Z,15.20
2022-11-02T17:34:02.974Z,15.24
2022-11-02T17:36:31.231Z,15.17
2022-11-02T17:39:05.941Z,15.23
2022-11-02T17:41:57.273Z,15.24
2022-11-02T17:44:25.523Z,15.26
2022-11-02T17:46:55.869Z,14.81
2022-11-02T17:49:24.023Z,15.12
2022-11-02T17:51:52.160Z,14.96
2022-11-02T17:54:20.287Z,15.08
2022-11-02T17:56:48.616Z,14.84
2022-11-02T17:59:16.945Z,15.01
2022-11-02T18:01:45.334Z,14.99
2022-11-02T18:04:14.957Z,14.89
2022-11-02T18:06:43.242Z,14.91
2022-11-02T18:09:19.647Z,15.02
2022-11-02T18:11:47.923Z,14.96
2022-11-02T18:14:17.031Z,14.43
2022-11-02T18:16:45.832Z,14.36
2022-11-02T18:19:16.997Z,14.79
2022-11-02T18:21:45.653Z,14.81
2022-11-02T18:24:13.840Z,14.63
2022-11-02T18:26:44.303Z,14.76
2022-11-02T18:29:15.340Z,14.73
2022-11-02T18:31:43.578Z,14.71
2022-11-02T18:34:11.863Z,14.74
2022-11-02T18:36:43.172Z,14.62
2022-11-02T18:39:11.741Z,14.71
2022-11-02T18:41:43.136Z,14.47
2022-11-02T18:44:15.162Z,14.73
2022-11-02T18:46:43.964Z,14.55
2022-11-02T18:49:12.105Z,14.67
2022-11-02T18:51:43.467Z,14.60
2022-11-02T18:54:12.083Z,14.73
2022-11-02T18:56:40.427Z,14.57
2022-11-02T18:59:08.665Z,14.64
2022-11-02T19:01:37.249Z,14.74
2022-11-02T19:04:05.967Z,14.75
2022-11-02T19:06:52.711Z,14.52
2022-11-02T19:09:24.360Z,14.69
2022-11-02T19:11:54.620Z,14.65
2022-11-02T19:14:24.062Z,14.50
2022-11-02T19:16:52.313Z,14.19
2022-11-02T19:19:20.662Z,14.67
2022-11-02T19:21:49.205Z,14.72
2022-11-02T19:24:17.358Z,14.73
2022-11-02T19:26:46.951Z,14.62
2022-11-02T19:29:15.312Z,14.59
2022-11-02T19:31:43.777Z,14.73
2022-11-02T19:34:12.265Z,14.23
2022-11-02T19:36:40.560Z,14.59
2022-11-02T19:39:09.682Z,13.67
2022-11-02T19:41:38.470Z,14.26
2022-11-02T19:44:08.428Z,14.42
2022-11-02T19:46:36.740Z,14.60
2022-11-02T19:49:05.187Z,14.61
2022-11-02T19:51:33.449Z,14.52
2022-11-02T19:54:02.649Z,14.43
2022-11-02T19:56:32.434Z,14.49
2022-11-02T19:59:01.000Z,14.53
2022-11-02T20:01:31.862Z,14.26
2022-11-02T20:04:00.622Z,13.45
2022-11-02T20:06:30.265Z,14.56
2022-11-02T20:08:59.518Z,14.50
2022-11-02T20:11:28.566Z,14.54
2022-11-02T20:13:57.829Z,14.54
2022-11-02T20:16:26.628Z,14.51
2022-11-02T20:18:56.681Z,14.49
2022-11-02T20:21:32.472Z,14.44
2022-11-02T20:24:04.649Z,14.37
2022-11-02T20:26:34.072Z,14.27
2022-11-02T20:29:05.918Z,14.29
2022-11-02T20:31:35.539Z,14.33
2022-11-02T20:34:06.864Z,14.41
2022-11-02T20:36:35.737Z,14.22
2022-11-02T20:39:05.612Z,14.24
2022-11-02T20:41:33.947Z,14.33
2022-11-02T20:44:03.425Z,14.36
2022-11-02T20:46:41.983Z,13.95
2022-11-02T20:49:21.889Z,14.41
2022-11-02T20:51:57.544Z,14.43
2022-11-02T20:54:29.403Z,14.39
2022-11-02T20:56:57.762Z,14.37
2022-11-02T20:59:26.508Z,14.28
2022-11-02T21:01:54.977Z,14.46
2022-11-02T21:04:24.699Z,14.41
2022-11-02T21:06:52.902Z,14.28
2022-11-02T21:09:21.372Z,14.31
2022-11-02T21:12:06.847Z,13.95
2022-11-02T21:14:35.044Z,14.39
2022-11-02T21:17:03.869Z,14.41
2022-11-02T21:19:33.398Z,14.44
2022-11-02T21:22:01.768Z,14.43
2022-11-02T21:24:30.423Z,14.31
2022-11-02T21:26:58.604Z,14.37
2022-11-02T21:29:26.897Z,14.29
2022-11-02T21:31:55.245Z,14.33
2022-11-02T21:34:23.477Z,14.25
2022-11-02T21:36:53.231Z,14.34
2022-11-02T21:39:21.456Z,14.28
2022-11-02T21:41:49.644Z,14.31
2022-11-02T21:44:17.810Z,14.30
2022-11-02T21:46:46.049Z,14.38
2022-11-02T21:49:14.287Z,14.27
2022-11-02T21:51:43.011Z,14.31
2022-11-02T21:54:12.636Z,14.14
2022-11-02T21:56:40.981Z,14.37
2022-11-02T21:59:09.858Z,14.16
2022-11-02T22:01:49.053Z,14.27
2022-11-02T22:04:19.853Z,14.14
2022-11-02T22:06:48.244Z,13.57
2022-11-02T22:09:17.884Z,14.11
2022-11-02T22:11:46.329Z,12.51
2022-11-02T22:14:14.053Z,14.32
2022-11-02T22:16:43.496Z,14.39
2022-11-02T22:19:13.272Z,14.40
2022-11-02T22:21:42.736Z,14.07
2022-11-02T22:24:13.617Z,14.21
2022-11-02T22:26:43.302Z,14.30
2022-11-02T22:29:11.783Z,14.24
2022-11-02T22:31:41.747Z,12.18
2022-11-02T22:34:11.567Z,14.06
2022-11-02T22:36:42.360Z,14.39
2022-11-02T22:39:12.579Z,14.29
2022-11-02T22:41:43.907Z,14.32
2022-11-02T22:44:13.517Z,14.20
2022-11-02T22:46:43.468Z,14.31
2022-11-02T22:49:13.319Z,14.22
2022-11-02T22:51:43.239Z,14.07
2022-11-02T22:54:14.846Z,14.28
2022-11-02T22:56:45.080Z,11.94
2022-11-02T22:59:13.752Z,14.26
2022-11-02T23:01:42.387Z,14.32
2022-11-02T23:04:13.311Z,14.33
2022-11-02T23:06:41.655Z,14.33
2022-11-02T23:09:11.807Z,14.27
2022-11-02T23:11:39.185Z,14.31
2022-11-02T23:14:09.952Z,14.21
2022-11-02T23:16:39.757Z,14.38
2022-11-02T23:19:30.476Z,14.13
2022-11-02T23:22:18.151Z,14.40
2022-11-02T23:25:05.006Z,14.23
2022-11-02T23:27:34.014Z,14.31
2022-11-02T23:30:20.794Z,14.22
2022-11-02T23:32:50.666Z,14.24
2022-11-02T23:35:36.189Z,14.35
2022-11-02T23:38:07.667Z,14.28
2022-11-02T23:40:35.931Z,13.90
2022-11-02T23:43:06.111Z,14.27
2022-11-02T23:45:36.122Z,14.32
2022-11-02T23:48:06.933Z,14.33
2022-11-02T23:50:51.799Z,14.13
2022-11-02T23:53:39.015Z,13.65
2022-11-02T23:56:29.472Z,14.09
2022-11-02T23:59:07.293Z,14.12
